Time;durP1;ratioP1;P1;durP2;ratioP2;P2;SDS_P1;SDS_P2;PMS_P1;PMS_P2;Temp;Humidity;BMP_temperature;BMP_pressure;BME280_temperature;BME280_humidity;BME280_pressure;Samples;Min_cycle;Max_cycle;Signal;HPM_P1;HPM_P2
2022/11/19 00:01:12;;;;;;;12.28;6.80;;;;;;;0.26;89.15;99347.34;1751862;80;21103;-75
2022/11/19 00:03:41;;;;;;;13.35;7.15;;;;;;;0.27;89.26;99342.80;1752003;80;21206;-76
2022/11/19 00:06:13;;;;;;;12.15;6.53;;;;;;;0.30;89.35;99333.91;1779235;79;21134;-76
2022/11/19 00:08:42;;;;;;;11.38;6.87;;;;;;;0.32;89.41;99328.36;1764016;80;21899;-76
2022/11/19 00:12:53;;;;;;;10.90;6.65;;;;;;;0.37;89.44;99330.58;1755130;80;21103;-74
2022/11/19 00:17:27;;;;;;;10.32;5.70;;;;;;;0.31;89.43;99319.43;1776231;80;21048;-75
2022/11/19 00:19:57;;;;;;;11.00;6.10;;;;;;;0.35;89.59;99317.77;1763689;80;21092;-74
2022/11/19 00:22:26;;;;;;;11.48;6.08;;;;;;;0.36;89.60;99305.98;1782709;80;21671;-76
2022/11/19 00:24:56;;;;;;;10.65;5.78;;;;;;;0.35;89.64;99313.73;1782737;80;21139;-76
2022/11/19 00:27:25;;;;;;;13.35;5.53;;;;;;;0.35;89.71;99301.59;1766723;80;21550;-76
2022/11/19 00:29:54;;;;;;;9.55;5.60;;;;;;;0.33;89.78;99295.02;1693096;82;21137;-75
2022/11/19 00:32:23;;;;;;;11.57;5.85;;;;;;;0.35;89.93;99291.67;1687729;83;21126;-75
2022/11/19 00:34:52;;;;;;;9.43;5.20;;;;;;;0.41;89.96;99279.41;1752121;82;21611;-76
2022/11/19 00:37:21;;;;;;;8.20;5.03;;;;;;;0.42;89.99;99277.05;1715897;83;21162;-76
2022/11/19 00:39:52;;;;;;;10.18;5.65;;;;;;;0.41;89.99;99262.73;1751782;82;21162;-77
2022/11/19 00:42:22;;;;;;;9.73;4.67;;;;;;;0.41;90.06;99256.00;1715744;82;21162;-76
2022/11/19 00:44:51;;;;;;;7.92;4.72;;;;;;;0.42;90.12;99252.30;1751994;82;21159;-76
2022/11/19 00:47:21;;;;;;;7.80;4.58;;;;;;;0.44;90.16;99245.41;1716595;82;21136;-75
2022/11/19 00:49:50;;;;;;;8.88;5.03;;;;;;;0.46;90.22;99252.83;1751890;82;21111;-73
2022/11/19 00:52:53;;;;;;;8.08;4.85;;;;;;;0.46;90.25;99246.93;1715914;82;21118;-73
2022/11/19 00:55:23;;;;;;;9.25;5.15;;;;;;;0.46;90.37;99256.86;1752093;82;21566;-72
2022/11/19 00:57:53;;;;;;;6.97;4.42;;;;;;;0.48;90.49;99259.73;1751889;82;21624;-73
2022/11/19 01:00:23;;;;;;;7.90;4.30;;;;;;;0.48;90.51;99236.84;1751890;80;21178;-72
2022/11/19 01:02:53;;;;;;;7.72;4.60;;;;;;;0.52;90.61;99240.89;1751907;81;21104;-70
2022/11/19 01:05:22;;;;;;;7.00;4.08;;;;;;;0.56;90.70;99236.03;1751847;82;21115;-70
2022/11/19 01:07:52;;;;;;;6.65;4.05;;;;;;;0.59;90.67;99228.97;1752490;80;21578;-72
2022/11/19 01:10:22;;;;;;;7.47;4.10;;;;;;;0.60;90.70;99227.45;1752094;82;21546;-71
2022/11/19 01:15:53;;;;;;;7.00;3.80;;;;;;;0.62;90.77;99221.39;1751948;82;21589;-71
2022/11/19 01:18:22;;;;;;;7.08;4.00;;;;;;;0.66;90.82;99211.16;1751948;82;21162;-72
2022/11/19 01:20:52;;;;;;;6.72;3.67;;;;;;;0.69;90.81;99212.69;1752602;80;21149;-70
2022/11/19 01:23:22;;;;;;;7.25;3.83;;;;;;;0.67;90.79;99207.46;1751984;82;21115;-72
2022/11/19 01:25:52;;;;;;;5.80;3.45;;;;;;;0.64;90.83;99203.72;1751946;80;21147;-71
2022/11/19 01:28:22;;;;;;;6.20;3.60;;;;;;;0.67;90.96;99207.46;1714376;83;21572;-71
2022/11/19 01:30:52;;;;;;;5.50;3.35;;;;;;;0.66;90.95;99203.08;1780179;80;21112;-70
2022/11/19 01:33:23;;;;;;;4.92;3.05;;;;;;;0.66;91.03;99203.08;1774634;81;21146;-72
2022/11/19 01:36:01;;;;;;;5.78;3.47;;;;;;;0.69;91.14;99187.08;1774525;80;21108;-73
2022/11/19 01:38:32;;;;;;;6.65;3.17;;;;;;;0.71;91.22;99189.95;1739867;81;21103;-73
2022/11/19 01:41:01;;;;;;;4.90;2.75;;;;;;;0.74;91.28;99192.31;1773544;80;21111;-72
2022/11/19 01:43:49;;;;;;;6.22;3.00;;;;;;;0.73;91.20;99179.84;1771894;79;21523;-72
2022/11/19 01:46:23;;;;;;;4.58;2.67;;;;;;;0.75;91.24;99181.03;1774524;81;21128;-72
2022/11/19 01:49:03;;;;;;;4.62;3.05;;;;;;;0.78;91.21;99177.50;1774765;81;21695;-71
2022/11/19 01:51:59;;;;;;;6.20;3.20;;;;;;;0.80;91.21;99173.29;1700226;84;21140;-70
2022/11/19 01:54:37;;;;;;;4.37;2.70;;;;;;;0.80;91.27;99177.34;1700438;84;21178;-70
2022/11/19 01:57:13;;;;;;;4.92;2.87;;;;;;;0.82;91.28;99167.23;1700531;84;21234;-70
2022/11/19 01:59:43;;;;;;;5.42;3.22;;;;;;;0.84;91.31;99167.91;1605640;88;21211;-69
2022/11/19 02:02:12;;;;;;;5.30;2.70;;;;;;;0.85;91.28;99166.39;1600971;89;21235;-70
2022/11/19 02:04:41;;;;;;;3.67;2.60;;;;;;;0.87;91.29;99159.48;1607227;88;21125;-69
2022/11/19 02:07:12;;;;;;;4.78;2.77;;;;;;;0.85;91.25;99157.46;1700350;84;21669;-69
2022/11/19 02:09:43;;;;;;;5.03;3.00;;;;;;;0.83;91.23;99160.33;1652412;85;21636;-68
2022/11/19 02:12:27;;;;;;;4.50;2.65;;;;;;;0.81;91.32;99155.60;1744048;82;21131;-68
2022/11/19 02:15:13;;;;;;;3.60;2.30;;;;;;;0.81;91.38;99147.52;1744044;81;21104;-69
2022/11/19 02:18:20;;;;;;;4.70;2.60;;;;;;;0.81;91.36;99144.81;1756986;81;21147;-70
2022/11/19 02:21:35;;;;;;;5.75;2.95;;;;;;;0.81;91.44;99156.95;1774504;79;22203;-71
2022/11/19 02:24:51;;;;;;;4.83;2.72;;;;;;;0.81;91.54;99141.28;1774826;81;21167;-74
2022/11/19 02:27:50;;;;;;;4.45;2.80;;;;;;;0.85;91.67;99139.44;1693083;84;21139;-73
2022/11/19 02:30:19;;;;;;;;;;;;;;;0.83;91.63;99139.26;1686797;85;21119;-73
2022/11/19 02:33:05;;;;;;;5.97;2.98;;;;;;;0.84;91.69;99139.09;1646169;87;20520;-72
2022/11/19 02:35:59;;;;;;;3.85;2.60;;;;;;;0.84;91.72;99121.57;1646425;87;21652;-71
2022/11/19 02:38:52;;;;;;;4.15;2.40;;;;;;;0.82;91.69;99132.18;1646283;87;21158;-73
2022/11/19 02:41:38;;;;;;;4.53;2.60;;;;;;;0.77;91.55;99129.98;1645505;87;21126;-73
2022/11/19 02:47:23;;;;;;;4.45;2.92;;;;;;;0.80;91.76;99131.51;1701862;84;21155;-71
2022/11/19 02:49:58;;;;;;;3.92;2.55;;;;;;;0.78;91.70;99128.13;1713991;81;21100;-71
2022/11/19 02:52:27;;;;;;;6.25;2.67;;;;;;;0.78;91.77;99127.62;1701678;84;21135;-70
2022/11/19 02:54:57;;;;;;;4.97;2.70;;;;;;;0.79;91.84;99132.52;1701777;84;21103;-71
2022/11/19 02:57:26;;;;;;;4.92;2.45;;;;;;;0.81;91.86;99125.11;1606817;88;21181;-70
2022/11/19 03:05:52;;;;;;;5.45;2.95;;;;;;;0.83;91.81;99135.22;1681146;84;21225;-69
2022/11/19 03:08:23;;;;;;;4.83;2.52;;;;;;;0.81;91.84;99138.08;1675046;85;21150;-70
2022/11/19 03:11:14;;;;;;;4.05;2.30;;;;;;;0.84;91.93;99134.20;1743404;80;21529;-70
2022/11/19 03:16:50;;;;;;;4.45;2.80;;;;;;;0.88;92.03;99127.47;1779976;79;21134;-68
2022/11/19 03:19:39;;;;;;;3.72;2.45;;;;;;;0.87;92.02;99123.93;1780273;80;21106;-69
2022/11/19 03:22:26;;;;;;;5.83;3.20;;;;;;;0.89;92.09;99117.02;1754138;80;21145;-66
2022/11/19 03:25:23;;;;;;;3.67;2.42;;;;;;;0.89;92.26;99118.38;1780260;80;21189;-66
2022/11/19 03:28:05;;;;;;;3.30;2.30;;;;;;;0.87;92.27;99110.45;1765247;80;21563;-66
2022/11/19 03:30:37;;;;;;;4.00;2.52;;;;;;;0.86;92.34;99110.11;1744146;81;21186;-66
2022/11/19 03:33:32;;;;;;;4.17;2.65;;;;;;;0.81;92.39;99096.30;1743900;81;21194;-66
2022/11/19 03:36:08;;;;;;;4.20;2.60;;;;;;;0.78;92.53;99104.72;1755909;81;21498;-67
2022/11/19 03:38:45;;;;;;;3.45;2.30;;;;;;;0.76;92.67;99105.39;1774527;80;21113;-66
2022/11/19 03:41:16;;;;;;;2.97;2.10;;;;;;;0.77;92.78;99107.07;1762940;81;21406;-65
2022/11/19 03:43:51;;;;;;;4.00;2.77;;;;;;;0.80;93.00;99108.08;1774615;81;21329;-64
2022/11/19 03:46:21;;;;;;;3.12;2.35;;;;;;;0.81;92.98;99105.73;1769623;81;21130;-64
2022/11/19 03:48:52;;;;;;;3.60;2.08;;;;;;;0.81;93.09;99103.03;1743930;82;21582;-66
2022/11/19 03:51:27;;;;;;;3.87;2.47;;;;;;;0.82;93.09;99086.34;1708264;83;21143;-63
2022/11/19 03:53:56;;;;;;;3.90;2.37;;;;;;;0.82;93.15;99100.67;1744074;82;21591;-62
2022/11/19 03:56:26;;;;;;;4.17;2.50;;;;;;;0.86;93.29;99093.94;1708159;84;21699;-63
2022/11/19 03:58:57;;;;;;;4.90;2.50;;;;;;;0.88;93.30;99091.07;1606552;88;21232;-62
2022/11/19 04:01:26;;;;;;;5.30;2.67;;;;;;;0.88;93.39;99089.22;1630585;86;21624;-63
2022/11/19 04:06:46;;;;;;;3.98;2.83;;;;;;;0.92;93.54;99085.68;1679660;84;21214;-63
2022/11/19 04:09:17;;;;;;;3.85;2.60;;;;;;;0.93;93.57;99081.97;1673579;86;21219;-62
2022/11/19 04:11:48;;;;;;;4.97;3.02;;;;;;;0.94;93.64;99072.87;1673634;85;21186;-62
2022/11/19 04:14:19;;;;;;;5.05;2.95;;;;;;;0.94;93.67;99066.97;1673547;86;21111;-62
2022/11/19 04:16:51;;;;;;;6.50;3.20;;;;;;;0.95;93.69;99065.95;1673688;86;21181;-63
2022/11/19 04:19:20;;;;;;;5.65;3.22;;;;;;;0.97;93.71;99055.00;1673828;86;21107;-62
2022/11/19 04:21:49;;;;;;;8.45;3.52;;;;;;;0.94;93.74;99053.48;1673852;86;21171;-62
2022/11/19 04:24:20;;;;;;;12.75;4.42;;;;;;;0.91;93.75;99045.74;1731487;81;21156;-62
2022/11/19 04:26:49;;;;;;;11.45;4.50;;;;;;;0.89;93.86;99046.41;1752494;81;21558;-62
2022/11/19 04:29:20;;;;;;;6.67;3.60;;;;;;;0.87;93.91;99022.83;1706681;84;21571;-63
2022/11/19 04:31:50;;;;;;;5.22;2.75;;;;;;;0.87;94.02;99024.68;1770308;80;21163;-62
2022/11/19 04:34:19;;;;;;;4.30;2.65;;;;;;;0.92;94.14;99022.31;1765822;81;21145;-63
2022/11/19 04:36:49;;;;;;;5.05;2.70;;;;;;;0.92;94.15;99018.27;1765794;81;21139;-61
2022/11/19 04:39:18;;;;;;;3.77;2.45;;;;;;;0.90;94.17;99011.70;1766029;81;21574;-61
2022/11/19 04:41:49;;;;;;;3.65;2.55;;;;;;;0.90;94.16;99006.31;1766019;81;21123;-63
2022/11/19 04:44:22;;;;;;;3.60;2.62;;;;;;;0.85;94.05;99010.02;1766055;81;21588;-62
2022/11/19 04:46:52;;;;;;;4.67;3.10;;;;;;;0.83;94.15;99024.17;1767429;81;21145;-61
2022/11/19 04:49:22;;;;;;;4.75;3.25;;;;;;;0.83;94.26;99029.56;1767417;81;21114;-61
2022/11/19 04:51:51;;;;;;;3.92;3.00;;;;;;;0.85;94.36;99047.77;1767338;81;21623;-62
2022/11/19 04:54:21;;;;;;;8.88;5.65;;;;;;;0.85;94.44;99067.14;1768059;80;21627;-62
2022/11/19 04:56:50;;;;;;;8.63;5.70;;;;;;;0.86;94.48;99076.41;1767502;81;21189;-62
2022/11/19 04:59:20;;;;;;;10.85;6.75;;;;;;;0.87;94.48;99070.00;1767462;81;21106;-61
2022/11/19 05:01:52;;;;;;;12.30;8.05;;;;;;;0.87;94.49;99068.66;1764491;81;21118;-60
2022/11/19 05:04:23;;;;;;;14.87;8.28;;;;;;;0.91;94.60;99074.05;1741417;81;21134;-61
2022/11/19 05:06:52;;;;;;;18.02;10.10;;;;;;;0.94;94.59;99079.11;1767422;81;21550;-62
2022/11/19 05:09:22;;;;;;;14.70;8.90;;;;;;;0.95;94.54;99074.55;1767321;81;21198;-61
2022/11/19 05:11:51;;;;;;;16.35;8.90;;;;;;;0.95;94.56;99075.39;1767402;81;21137;-61
2022/11/19 05:14:20;;;;;;;16.77;9.18;;;;;;;0.96;94.60;99076.23;1767401;80;21115;-62
2022/11/19 05:16:51;;;;;;;14.18;8.00;;;;;;;1.00;94.68;99074.05;1767271;81;21103;-63
2022/11/19 05:19:20;;;;;;;15.95;8.55;;;;;;;1.02;94.76;99072.87;1767272;81;21125;-62
2022/11/19 05:21:51;;;;;;;14.63;7.95;;;;;;;1.05;94.75;99076.58;1767601;81;21181;-61
2022/11/19 05:24:20;;;;;;;15.48;7.90;;;;;;;1.07;94.78;99069.66;1764947;81;21126;-62
2022/11/19 05:26:49;;;;;;;16.15;8.60;;;;;;;1.09;94.73;99073.03;1757878;81;21082;-62
2022/11/19 05:29:19;;;;;;;14.18;7.92;;;;;;;1.09;94.75;99076.57;1689649;83;21572;-61
2022/11/19 05:31:50;;;;;;;13.05;8.23;;;;;;;1.10;94.70;99077.41;1693175;83;21134;-60
2022/11/19 05:34:20;;;;;;;14.43;7.75;;;;;;;1.07;94.57;99077.25;1773885;81;21140;-61
2022/11/19 05:36:50;;;;;;;12.95;7.45;;;;;;;1.04;94.53;99070.84;1774718;80;21119;-61
2022/11/19 05:39:21;;;;;;;17.55;8.73;;;;;;;1.03;94.54;99077.25;1730950;82;21124;-61
2022/11/19 05:41:51;;;;;;;15.72;8.23;;;;;;;1.03;94.56;99077.75;1730950;83;21107;-60
2022/11/19 05:44:20;;;;;;;13.10;7.33;;;;;;;1.02;94.51;99073.38;1731411;83;21147;-61
2022/11/19 05:46:50;;;;;;;13.85;8.58;;;;;;;1.01;94.61;99081.13;1731073;83;21174;-61
2022/11/19 05:49:19;;;;;;;14.98;8.38;;;;;;;1.02;94.64;99082.81;1728419;83;21159;-61
2022/11/19 05:51:48;;;;;;;13.55;8.00;;;;;;;1.00;94.62;99092.42;1731159;83;21123;-60
2022/11/19 05:54:17;;;;;;;11.83;6.87;;;;;;;0.98;94.57;99094.44;1731089;82;21155;-61
2022/11/19 05:56:48;;;;;;;15.30;8.23;;;;;;;0.99;94.62;99094.78;1665519;84;21135;-61
2022/11/19 05:59:19;;;;;;;14.85;7.75;;;;;;;1.01;94.67;99095.95;1774531;80;21116;-62
2022/11/19 06:01:50;;;;;;;12.37;6.83;;;;;;;1.02;94.72;99097.14;1774492;81;21150;-61
2022/11/19 06:04:19;;;;;;;11.18;6.47;;;;;;;1.04;94.68;99095.11;1774555;81;21099;-61
2022/11/19 06:06:49;;;;;;;11.33;6.72;;;;;;;1.06;94.71;99094.95;1745392;81;21154;-60
2022/11/19 06:09:19;;;;;;;11.68;6.97;;;;;;;1.10;94.81;99097.64;1743968;82;21151;-63
2022/11/19 06:11:50;;;;;;;16.02;7.72;;;;;;;1.14;94.80;99096.30;1743840;82;21179;-63
2022/11/19 06:14:21;;;;;;;16.57;8.08;;;;;;;1.13;94.69;99093.25;1708105;82;21150;-61
2022/11/19 06:16:52;;;;;;;15.43;7.80;;;;;;;1.13;94.63;99102.70;1744223;82;21123;-61
2022/11/19 06:19:22;;;;;;;13.40;7.67;;;;;;;1.13;94.65;99105.39;1743929;82;21147;-61
2022/11/19 06:21:52;;;;;;;15.43;7.70;;;;;;;1.13;94.68;99108.09;1708212;84;21574;-61
2022/11/19 06:24:21;;;;;;;16.05;8.48;;;;;;;1.13;94.71;99109.44;1744466;81;21159;-63
2022/11/19 06:26:51;;;;;;;14.33;7.87;;;;;;;1.12;94.65;99128.83;1707880;83;21608;-62
2022/11/19 06:29:20;;;;;;;12.35;7.30;;;;;;;1.09;94.52;99133.20;1772882;81;21143;-62
2022/11/19 06:31:50;;;;;;;17.42;9.13;;;;;;;1.08;94.58;99130.68;1706884;83;21234;-62
2022/11/19 06:34:21;;;;;;;12.78;7.03;;;;;;;1.07;94.56;99130.34;1772644;81;21127;-64
2022/11/19 06:36:52;;;;;;;16.00;8.30;;;;;;;1.08;94.63;99130.68;1773163;81;21130;-62
2022/11/19 06:39:22;;;;;;;14.13;7.78;;;;;;;1.09;94.61;99142.65;1706825;84;21139;-63
2022/11/19 06:41:53;;;;;;;16.75;8.88;;;;;;;1.09;94.57;99148.55;1772888;81;21127;-62
2022/11/19 06:44:23;;;;;;;14.28;8.18;;;;;;;1.10;94.58;99145.69;1705889;83;21209;-62
2022/11/19 06:46:53;;;;;;;15.15;7.67;;;;;;;1.10;94.62;99149.73;1774753;81;21116;-62
2022/11/19 06:49:24;;;;;;;15.15;7.62;;;;;;;1.11;94.62;99150.06;1701877;84;21178;-62
2022/11/19 06:51:55;;;;;;;18.15;9.08;;;;;;;1.13;94.75;99148.55;1627050;87;21206;-65
2022/11/19 06:54:24;;;;;;;15.45;7.97;;;;;;;1.14;94.77;99150.23;1673497;86;21164;-63
2022/11/19 06:56:53;;;;;;;18.02;9.50;;;;;;;1.16;94.75;99157.15;1673746;86;21219;-62
2022/11/19 06:59:23;;;;;;;17.35;8.75;;;;;;;1.15;94.75;99148.72;1651455;86;21203;-62
2022/11/19 07:02:14;;;;;;;17.82;9.48;;;;;;;1.13;94.72;99149.90;1673711;86;21673;-62
2022/11/19 07:04:45;;;;;;;17.85;8.88;;;;;;;1.14;94.76;99150.23;1601838;88;21636;-62
2022/11/19 07:07:16;;;;;;;18.23;8.98;;;;;;;1.14;94.79;99150.23;1622529;86;21144;-63
2022/11/19 07:09:46;;;;;;;17.37;8.93;;;;;;;1.17;94.90;99156.64;1664936;86;21552;-63
2022/11/19 07:12:16;;;;;;;15.53;8.20;;;;;;;1.19;94.89;99155.97;1664689;85;21204;-63
2022/11/19 07:14:48;;;;;;;18.32;9.55;;;;;;;1.21;94.93;99157.48;1665182;86;21139;-60
2022/11/19 07:17:18;;;;;;;20.15;10.43;;;;;;;1.24;94.96;99167.09;1664948;86;21180;-62
2022/11/19 07:19:47;;;;;;;17.90;9.23;;;;;;;1.27;95.01;99165.41;1653151;85;21678;-63
2022/11/19 07:22:19;;;;;;;20.68;10.50;;;;;;;1.30;94.96;99164.23;1672322;85;21142;-62
2022/11/19 07:24:48;;;;;;;20.10;9.83;;;;;;;1.29;94.90;99167.44;1677921;85;21189;-62
2022/11/19 07:27:20;;;;;;;23.60;9.83;;;;;;;1.28;94.86;99173.84;1678272;85;21194;-63
2022/11/19 07:29:49;;;;;;;18.25;10.25;;;;;;;1.28;94.87;99173.84;1678079;85;21214;-63
2022/11/19 07:32:19;;;;;;;17.50;9.38;;;;;;;1.35;95.01;99182.14;1677962;85;21131;-64
2022/11/19 07:34:48;;;;;;;17.37;9.25;;;;;;;1.38;95.07;99183.15;1678032;85;21175;-63
2022/11/19 07:37:17;;;;;;;24.40;10.05;;;;;;;1.40;95.10;99184.66;1678087;85;21210;-62
2022/11/19 07:39:51;;;;;;;17.48;10.23;;;;;;;1.42;95.00;99192.59;1649649;86;21687;-63
2022/11/19 07:45:10;;;;;;;21.20;9.13;;;;;;;1.42;94.89;99190.73;1649913;85;21158;-63
2022/11/19 07:47:40;;;;;;;16.60;9.00;;;;;;;1.42;94.81;99192.59;1650217;87;22216;-63
2022/11/19 07:50:10;;;;;;;21.60;9.45;;;;;;;1.37;94.63;99196.30;1650002;87;21588;-63
2022/11/19 07:52:40;;;;;;;18.95;8.53;;;;;;;1.39;94.69;99197.82;1649918;87;21209;-62
2022/11/19 07:55:10;;;;;;;19.32;9.80;;;;;;;1.41;94.68;99201.70;1649946;85;21122;-61
2022/11/19 07:57:39;;;;;;;22.00;10.32;;;;;;;1.40;94.51;99207.61;1659610;85;21131;-62
2022/11/19 08:00:11;;;;;;;18.17;9.58;;;;;;;1.37;94.46;99211.14;1677448;84;21744;-64
2022/11/19 08:02:40;;;;;;;19.82;10.30;;;;;;;1.36;94.51;99209.45;1679357;84;21167;-62
2022/11/19 08:05:12;;;;;;;19.10;10.75;;;;;;;1.35;94.41;99210.47;1691545;83;21136;-62
2022/11/19 08:07:42;;;;;;;21.37;10.90;;;;;;;1.35;94.43;99215.86;1692134;85;21175;-65
2022/11/19 08:10:13;;;;;;;21.90;11.40;;;;;;;1.34;94.43;99217.72;1634128;86;21153;-63
2022/11/19 08:13:01;;;;;;;28.85;13.10;;;;;;;1.39;94.43;99218.06;1629357;87;21272;-62
2022/11/19 08:15:16;;;;;;;35.98;12.78;;;;;;;1.39;94.17;99216.71;1631968;86;21177;-62
2022/11/19 08:20:37;;;;;;;23.50;12.43;;;;;;;1.40;94.04;99234.59;1581549;89;21171;-62
2022/11/19 08:23:07;;;;;;;29.90;13.78;;;;;;;1.37;93.88;99241.67;1581548;91;21261;-62
2022/11/19 08:25:40;;;;;;;29.82;14.65;;;;;;;1.39;93.85;99257.70;1581728;89;21672;-63
2022/11/19 08:28:11;;;;;;;25.82;12.88;;;;;;;1.39;93.83;99260.39;1582494;88;21150;-62
2022/11/19 08:30:41;;;;;;;21.82;12.73;;;;;;;1.36;93.61;99263.42;1632903;88;21675;-61
2022/11/19 08:33:11;;;;;;;25.12;12.63;;;;;;;1.36;93.53;99269.66;1632701;88;21174;-64
2022/11/19 08:35:43;;;;;;;29.15;13.32;;;;;;;1.36;93.38;99264.27;1654732;85;21202;-64
2022/11/19 08:38:13;;;;;;;24.90;14.25;;;;;;;1.28;92.94;99275.02;1691745;83;21138;-63
2022/11/19 08:40:43;;;;;;;26.02;14.25;;;;;;;1.27;93.06;99277.37;1692335;85;21186;-63
2022/11/19 08:43:13;;;;;;;28.60;14.80;;;;;;;1.30;93.03;99282.47;1638593;85;21170;-62
2022/11/19 08:45:51;;;;;;;29.77;15.00;;;;;;;1.32;92.98;99290.41;1692301;85;21145;-65
2022/11/19 08:48:21;;;;;;;31.12;14.73;;;;;;;1.32;92.78;99300.69;1692232;85;21130;-63
2022/11/19 08:50:52;;;;;;;26.80;15.10;;;;;;;1.27;92.62;99301.16;1692686;85;21621;-66
2022/11/19 08:53:21;;;;;;;31.07;15.90;;;;;;;1.28;92.60;99310.94;1692341;85;21130;-66
2022/11/19 08:55:51;;;;;;;32.60;16.20;;;;;;;1.28;92.49;99310.94;1692482;85;21190;-68
2022/11/19 08:58:20;;;;;;;32.15;15.15;;;;;;;1.31;92.47;99311.65;1692251;83;21193;-68
2022/11/19 09:00:50;;;;;;;26.17;14.63;;;;;;;1.31;92.28;99318.39;1666728;85;21154;-73
2022/11/19 09:03:19;;;;;;;37.65;15.80;;;;;;;1.31;92.22;99319.23;1692311;83;21210;-71
2022/11/19 09:05:48;;;;;;;30.97;15.38;;;;;;;1.29;91.93;99323.92;1692350;83;21125;-72
2022/11/19 09:08:17;;;;;;;32.58;15.90;;;;;;;1.25;91.84;99331.50;1692550;85;21101;-71
2022/11/19 09:10:46;;;;;;;36.33;16.62;;;;;;;1.21;91.57;99346.33;1692138;83;21181;-74
2022/11/19 09:13:17;;;;;;;31.95;17.02;;;;;;;1.22;91.80;99341.78;1691743;85;21134;-72
2022/11/19 09:15:50;;;;;;;40.83;18.12;;;;;;;1.26;91.83;99339.09;1692273;85;21229;-72
2022/11/19 09:18:19;;;;;;;34.63;16.52;;;;;;;1.29;91.89;99345.51;1692474;85;21162;-71
2022/11/19 09:20:54;;;;;;;46.53;22.22;;;;;;;1.31;91.89;99352.97;1692424;85;21164;-72
2022/11/19 09:23:24;;;;;;;35.65;17.05;;;;;;;1.31;91.66;99360.22;1692463;85;21162;-72
2022/11/19 09:25:57;;;;;;;35.92;17.15;;;;;;;1.31;91.73;99364.27;1692519;85;21142;-73
2022/11/19 09:28:27;;;;;;;35.23;17.98;;;;;;;1.37;92.04;99360.91;1691281;83;21150;-72
2022/11/19 09:31:05;;;;;;;43.78;19.10;;;;;;;1.38;91.85;99362.09;1691640;85;21588;-73
2022/11/19 09:33:37;;;;;;;37.45;19.98;;;;;;;1.40;91.99;99367.33;1691486;85;21222;-73
2022/11/19 09:36:08;;;;;;;38.17;18.87;;;;;;;1.44;91.98;99362.78;1691034;84;21190;-73
2022/11/19 09:38:39;;;;;;;38.98;20.43;;;;;;;1.45;91.84;99376.62;1691251;84;21178;-74
2022/11/19 09:41:48;;;;;;;35.60;17.52;;;;;;;1.47;91.85;99374.60;1691136;84;21178;-72
2022/11/19 09:44:30;;;;;;;36.88;17.85;;;;;;;1.45;91.33;99381.17;1691085;83;21597;-75
2022/11/19 09:47:26;;;;;;;33.40;18.65;;;;;;;1.45;91.33;99381.17;1691108;85;21139;-74
2022/11/19 09:50:16;;;;;;;33.20;17.48;;;;;;;1.46;91.28;99393.66;1691042;84;21158;-73
2022/11/19 09:52:56;;;;;;;41.80;18.92;;;;;;;1.45;91.30;99401.41;1691495;84;21138;-76
2022/11/19 09:55:40;;;;;;;38.92;20.05;;;;;;;1.43;91.09;99385.38;1692360;85;21173;-75
2022/11/19 09:58:32;;;;;;;36.35;19.48;;;;;;;1.44;91.08;99397.88;1691970;83;21150;-74
2022/11/19 10:01:01;;;;;;;36.85;18.65;;;;;;;1.42;91.07;99401.73;1691308;85;21443;-73
2022/11/19 10:03:31;;;;;;;35.30;17.17;;;;;;;1.44;91.14;99402.42;1666883;84;21154;-74
2022/11/19 10:06:26;;;;;;;34.15;18.02;;;;;;;1.40;90.99;99392.46;1694971;84;21176;-74
2022/11/19 10:09:41;;;;;;;39.88;20.00;;;;;;;1.40;90.99;99389.76;1668158;84;21180;-73
2022/11/19 10:12:55;;;;;;;34.98;17.32;;;;;;;1.38;91.01;99402.57;1678077;84;21224;-74
2022/11/19 10:15:35;;;;;;;35.08;17.62;;;;;;;1.37;91.14;99407.63;1680991;84;21594;-73
2022/11/19 10:18:20;;;;;;;35.10;16.25;;;;;;;1.37;91.18;99402.23;1681238;85;21134;-77
2022/11/19 10:21:13;;;;;;;30.95;14.78;;;;;;;1.37;91.19;99406.28;1681148;84;21575;-75
2022/11/19 10:24:16;;;;;;;26.42;13.62;;;;;;;1.37;91.14;99404.09;1681058;84;21135;-72
2022/11/19 10:26:48;;;;;;;24.77;14.03;;;;;;;1.35;91.18;99403.41;1655677;84;21162;-72
2022/11/19 10:29:21;;;;;;;32.80;15.40;;;;;;;1.35;91.08;99412.34;1680087;85;21138;-73
2022/11/19 10:31:52;;;;;;;36.03;18.32;;;;;;;1.32;90.98;99415.37;1680931;85;21162;-75
2022/11/19 10:34:30;;;;;;;38.73;21.60;;;;;;;1.23;90.75;99417.16;1680989;84;21134;-75
2022/11/19 10:37:13;;;;;;;46.28;24.50;;;;;;;1.20;90.81;99427.43;1681142;84;21573;-78
2022/11/19 10:39:57;;;;;;;43.35;20.15;;;;;;;1.19;90.94;99433.83;1681036;84;21202;-78
2022/11/19 10:42:38;;;;;;;41.75;18.42;;;;;;;1.21;91.03;99445.30;1681525;84;21138;-77
2022/11/19 10:45:25;;;;;;;39.25;16.97;;;;;;;1.21;90.99;99456.09;1682374;85;21163;-77
2022/11/19 10:48:12;;;;;;;33.33;16.65;;;;;;;1.19;90.90;99459.45;1682752;84;21181;-75
2022/11/19 10:50:42;;;;;;;30.90;16.07;;;;;;;1.17;90.83;99456.92;1675209;84;21150;-74
2022/11/19 10:53:35;;;;;;;31.97;16.48;;;;;;;1.17;90.70;99470.41;1682579;84;21174;-74
2022/11/19 10:56:12;;;;;;;31.55;16.37;;;;;;;1.17;90.64;99470.91;1682609;84;21278;-73
2022/11/19 10:58:56;;;;;;;30.75;16.95;;;;;;;1.15;90.39;99491.81;1660647;85;21171;-73
2022/11/19 11:01:30;;;;;;;33.18;18.52;;;;;;;1.13;90.17;99494.67;1682735;85;21182;-72
2022/11/19 11:04:22;;;;;;;38.20;19.30;;;;;;;1.12;89.99;99498.87;1678604;84;21112;-73
2022/11/19 11:07:01;;;;;;;36.88;18.02;;;;;;;1.09;89.71;99509.48;1643828;86;21134;-74
2022/11/19 11:09:44;;;;;;;38.58;18.80;;;;;;;1.08;89.59;99523.13;1622195;87;21636;-75
2022/11/19 11:15:15;;;;;;;37.88;16.23;;;;;;;1.17;90.07;99544.59;1665025;85;21157;-81
2022/11/19 11:17:47;;;;;;;30.02;15.38;;;;;;;1.18;90.10;99565.68;1665049;85;21615;-79
2022/11/19 11:20:21;;;;;;;29.87;15.65;;;;;;;1.18;89.91;99567.03;1665119;85;21129;-81
2022/11/19 11:23:07;;;;;;;27.17;14.70;;;;;;;1.18;89.95;99571.92;1676609;83;21138;-81
2022/11/19 11:25:37;;;;;;;28.92;16.37;;;;;;;1.17;89.49;99555.89;1670865;85;21154;-81
2022/11/19 11:28:15;;;;;;;31.40;16.17;;;;;;;1.11;89.28;99556.53;1691380;85;21139;-80
2022/11/19 11:30:56;;;;;;;25.10;14.65;;;;;;;1.10;89.41;99546.24;1665988;85;21142;-81
2022/11/19 11:33:34;;;;;;;32.98;16.48;;;;;;;1.09;89.26;99548.59;1691497;85;21138;-81
2022/11/19 11:36:12;;;;;;;;;;;;;;;1.05;89.23;99559.86;1693559;84;21126;-79
2022/11/19 11:38:43;;;;;;;;;;;;;;;1.05;89.43;99577.39;1693452;84;20209;-78
2022/11/19 11:41:18;;;;;;;26.50;15.05;;;;;;;1.01;89.16;99580.05;1691258;85;20178;-78
2022/11/19 11:44:08;;;;;;;31.37;15.10;;;;;;;0.99;89.57;99594.20;1688940;83;21174;-80
2022/11/19 11:46:52;;;;;;;35.13;16.60;;;;;;;1.15;90.05;99599.72;1669184;85;21652;-79
2022/11/19 11:49:37;;;;;;;27.98;14.95;;;;;;;1.15;89.38;99610.52;1692400;83;21232;-77
2022/11/19 11:52:27;;;;;;;32.23;16.97;;;;;;;1.06;88.54;99635.73;1692398;85;21130;-74
2022/11/19 11:55:03;;;;;;;31.00;15.25;;;;;;;0.98;88.54;99635.66;1691596;83;21122;-75
2022/11/19 11:57:38;;;;;;;29.65;16.07;;;;;;;0.90;88.48;99649.91;1692263;83;21616;-75
2022/11/19 12:00:35;;;;;;;30.15;17.02;;;;;;;0.87;88.44;99651.57;1690327;83;21186;-75
2022/11/19 12:03:13;;;;;;;29.60;14.90;;;;;;;0.91;88.89;99672.69;1690926;85;21144;-73
2022/11/19 12:06:07;;;;;;;30.80;16.05;;;;;;;0.88;87.73;99674.84;1693677;85;21135;-71
2022/11/19 12:08:53;;;;;;;30.57;16.50;;;;;;;0.78;87.49;99675.41;1668090;85;21334;-72
2022/11/19 12:11:52;;;;;;;;;;;;;;;0.76;87.85;99680.96;1624726;88;21125;-72
2022/11/19 12:14:11;;;;;;;27.35;15.95;;;;;;;0.75;87.89;99684.66;1635544;87;20206;-72
2022/11/19 12:16:49;;;;;;;36.08;17.20;;;;;;;0.73;87.95;99681.77;1607634;88;21284;-73
2022/11/19 12:19:25;;;;;;;;;;;;;;;0.72;88.30;99685.45;1610773;89;21166;-72
2022/11/19 12:22:06;;;;;;;28.70;15.80;;;;;;;0.74;88.04;99697.79;1562677;89;20217;-71
2022/11/19 12:25:00;;;;;;;25.23;14.93;;;;;;;0.70;87.91;99713.07;1608024;88;21189;-73
2022/11/19 12:27:43;;;;;;;26.70;15.15;;;;;;;0.69;88.00;99727.55;1603484;89;21189;-71
2022/11/19 12:30:23;;;;;;;23.73;13.55;;;;;;;0.72;88.13;99728.09;1685574;84;21538;-70
2022/11/19 12:33:19;;;;;;;28.57;14.80;;;;;;;0.75;88.04;99733.19;1699523;83;21204;-72
2022/11/19 12:36:12;;;;;;;23.85;13.75;;;;;;;0.74;87.89;99746.31;1699626;84;21146;-73
2022/11/19 12:39:08;;;;;;;27.13;14.65;;;;;;;0.67;87.17;99753.31;1699376;83;21169;-73
2022/11/19 12:42:02;;;;;;;23.02;13.15;;;;;;;0.59;86.55;99774.24;1699018;83;21135;-72